Time;durP1;ratioP1;P1;durP2;ratioP2;P2;SDS_P1;SDS_P2;PMS_P1;PMS_P2;Temp;Humidity;BMP_temperature;BMP_pressure;BME280_temperature;BME280_humidity;BME280_pressure;Samples;Min_cycle;Max_cycle;Signal;HPM_P1;HPM_P2
2021/04/28 00:00:36;;;;;;;8.60;5.57;;;9.20;99.90;;;;;;5011437;28;20076;-73
2021/04/28 00:03:05;;;;;;;10.45;5.03;;;9.20;13.50;;;;;;5008537;28;20080;-73
2021/04/28 00:05:30;;;;;;;10.40;5.32;;;9.10;99.90;;;;;;5010440;28;20401;-73
2021/04/28 00:07:56;;;;;;;6.10;4.95;;;9.10;52.10;;;;;;5013157;28;20026;-74
2021/04/28 00:10:27;;;;;;;10.15;5.70;;;9.10;99.90;;;;;;5031428;28;20041;-73
2021/04/28 00:12:52;;;;;;;8.07;4.73;;;9.00;36.30;;;;;;5019612;28;20095;-74
2021/04/28 00:15:29;;;;;;;7.20;4.93;;;8.90;1.00;;;;;;5013970;28;20026;-74
2021/04/28 00:17:55;;;;;;;9.73;5.85;;;8.90;42.50;;;;;;5007460;28;20485;-74
2021/04/28 00:20:23;;;;;;;6.40;5.38;;;8.90;1.00;;;;;;5017603;28;20022;-74
2021/04/28 00:22:49;;;;;;;6.25;5.00;;;8.90;99.90;;;;;;5016650;28;20053;-75
2021/04/28 00:25:17;;;;;;;7.63;5.30;;;8.90;1.00;;;;;;5012772;28;20021;-74
2021/04/28 00:27:43;;;;;;;11.77;5.03;;;8.80;99.90;;;;;;5014690;28;20432;-76
2021/04/28 00:30:11;;;;;;;5.10;4.55;;;8.80;99.90;;;;;;5008222;28;20022;-75
2021/04/28 00:32:38;;;;;;;6.07;4.65;;;8.70;99.90;;;;;;5014220;28;20018;-75
2021/04/28 00:35:06;;;;;;;9.88;5.35;;;8.70;99.90;;;;;;5004122;28;20053;-74
2021/04/28 00:37:32;;;;;;;9.18;5.05;;;8.70;99.90;;;;;;5015306;28;20034;-74
2021/04/28 00:39:57;;;;;;;6.97;5.53;;;8.70;1.00;;;;;;5015218;28;20022;-74
2021/04/28 00:42:23;;;;;;;5.80;5.03;;;8.70;1.00;;;;;;5020005;28;20025;-75
2021/04/28 00:44:49;;;;;;;7.57;5.22;;;8.60;1.00;;;;;;5019656;28;20041;-74
2021/04/28 00:47:15;;;;;;;9.98;5.75;;;8.60;1.00;;;;;;5015416;28;20021;-75
2021/04/28 00:49:41;;;;;;;9.02;5.97;;;8.50;99.90;;;;;;5019859;28;20026;-75
2021/04/28 00:52:07;;;;;;;7.05;5.22;;;8.50;1.00;;;;;;5021194;28;20026;-76
2021/04/28 00:54:33;;;;;;;5.50;4.90;;;8.50;99.90;;;;;;5018890;28;20044;-74
2021/04/28 00:57:00;;;;;;;5.40;4.70;;;8.50;1.00;;;;;;5031708;28;20014;-74
2021/04/28 00:59:26;;;;;;;8.05;5.28;;;8.50;99.90;;;;;;5036103;28;20022;-75
2021/04/28 01:01:52;;;;;;;6.13;5.05;;;8.40;99.90;;;;;;5031448;28;20036;-74
2021/04/28 01:04:18;;;;;;;7.47;4.80;;;8.40;99.90;;;;;;5036124;28;20018;-74
2021/04/28 01:06:45;;;;;;;7.53;4.60;;;8.40;27.00;;;;;;5022851;28;20362;-75
2021/04/28 01:09:14;;;;;;;6.90;4.57;;;8.30;1.00;;;;;;5035755;28;20029;-73
2021/04/28 01:11:40;;;;;;;7.40;5.57;;;8.30;99.90;;;;;;5036464;28;20102;-73
2021/04/28 01:14:07;;;;;;;8.38;5.65;;;8.20;99.90;;;;;;5031917;28;20032;-74
2021/04/28 01:16:34;;;;;;;6.97;4.78;;;8.20;99.90;;;;;;5037278;28;20033;-74
2021/04/28 01:19:01;;;;;;;7.25;5.03;;;8.20;99.90;;;;;;5036145;28;20017;-73
2021/04/28 01:21:26;;;;;;;7.30;5.00;;;8.10;19.00;;;;;;5037263;28;20014;-74
2021/04/28 01:23:52;;;;;;;8.75;4.93;;;8.10;99.90;;;;;;5034896;28;20091;-74
2021/04/28 01:26:22;;;;;;;9.85;5.00;;;8.00;99.90;;;;;;5024117;28;20034;-74
2021/04/28 01:28:49;;;;;;;5.78;5.07;;;7.90;99.90;;;;;;5028873;28;20022;-73
2021/04/28 01:31:16;;;;;;;9.23;5.53;;;7.90;1.00;;;;;;5033030;28;20018;-74
2021/04/28 01:33:47;;;;;;;5.60;4.93;;;7.90;1.00;;;;;;5035787;28;20017;-74
2021/04/28 01:36:21;;;;;;;9.13;5.13;;;7.90;84.50;;;;;;5031432;28;20014;-73
2021/04/28 01:38:51;;;;;;;7.28;5.68;;;7.90;99.90;;;;;;5034062;28;20026;-74
2021/04/28 01:41:17;;;;;;;6.72;5.72;;;7.80;99.90;;;;;;5017066;28;20019;-74
2021/04/28 01:43:44;;;;;;;6.97;5.03;;;7.80;1.00;;;;;;5052094;28;20061;-74
2021/04/28 01:46:11;;;;;;;11.02;5.20;;;7.80;1.00;;;;;;5032553;28;20022;-73
2021/04/28 01:48:41;;;;;;;6.78;5.30;;;7.80;1.00;;;;;;5033982;28;20022;-74
2021/04/28 01:51:08;;;;;;;7.22;4.85;;;7.80;34.20;;;;;;5030731;28;20082;-75
2021/04/28 01:53:34;;;;;;;6.25;5.07;;;7.70;90.40;;;;;;5034142;28;20041;-74
2021/04/28 01:56:00;;;;;;;5.72;4.78;;;7.60;99.90;;;;;;5036493;28;20069;-73
2021/04/28 01:58:27;;;;;;;8.30;5.85;;;7.70;99.90;;;;;;5036139;28;20030;-74
2021/04/28 02:00:54;;;;;;;7.85;6.03;;;7.70;99.90;;;;;;5035500;28;20022;-73
2021/04/28 02:03:24;;;;;;;8.40;5.93;;;7.60;99.90;;;;;;5036334;28;20033;-74
2021/04/28 02:05:51;;;;;;;8.63;6.28;;;7.60;99.90;;;;;;5035761;28;20010;-73
2021/04/28 02:08:17;;;;;;;7.18;4.80;;;7.60;99.90;;;;;;5035830;28;20041;-74
2021/04/28 02:10:43;;;;;;;7.43;5.72;;;7.50;1.00;;;;;;5032825;28;20010;-74
2021/04/28 02:13:18;;;;;;;7.28;5.07;;;7.60;1.00;;;;;;5036653;28;20034;-74
2021/04/28 02:15:45;;;;;;;6.07;4.70;;;7.70;1.00;;;;;;5035215;28;20029;-74
2021/04/28 02:18:13;;;;;;;8.43;5.18;;;7.80;1.00;;;;;;5033806;28;20022;-74
2021/04/28 02:20:39;;;;;;;8.43;5.80;;;7.70;1.00;;;;;;5032614;28;20060;-73
2021/04/28 02:23:05;;;;;;;5.70;5.18;;;7.70;1.00;;;;;;5031297;28;20033;-74
2021/04/28 02:25:32;;;;;;;7.90;5.68;;;7.60;1.00;;;;;;5029216;28;20030;-73
2021/04/28 02:27:59;;;;;;;6.75;5.70;;;7.60;1.00;;;;;;5027840;28;20049;-73
2021/04/28 02:30:27;;;;;;;8.30;5.45;;;7.60;27.00;;;;;;5034175;28;20033;-74
2021/04/28 02:32:54;;;;;;;11.35;5.90;;;7.60;1.00;;;;;;5036134;28;20025;-74
2021/04/28 02:35:24;;;;;;;9.80;5.72;;;7.60;1.00;;;;;;5034046;28;20028;-73
2021/04/28 02:38:15;;;;;;;8.77;5.03;;;7.60;1.00;;;;;;5029224;28;20041;-73
2021/04/28 02:40:42;;;;;;;11.48;5.55;;;7.60;99.90;;;;;;4999997;28;20081;-73
2021/04/28 02:43:11;;;;;;;6.10;5.55;;;7.50;99.90;;;;;;5021402;28;20473;-73
2021/04/28 02:45:37;;;;;;;15.07;6.25;;;7.50;99.90;;;;;;5025173;28;20049;-73
2021/04/28 02:48:04;;;;;;;7.57;5.22;;;7.50;99.90;;;;;;5024822;28;20281;-73
2021/04/28 02:50:30;;;;;;;11.70;5.82;;;7.50;99.90;;;;;;5024622;28;20034;-74
2021/04/28 02:52:58;;;;;;;9.10;6.25;;;7.40;99.90;;;;;;5032515;28;20057;-74
2021/04/28 02:55:23;;;;;;;10.57;5.93;;;7.40;99.90;;;;;;5039439;28;20006;-73
2021/04/28 02:57:49;;;;;;;9.75;5.85;;;7.40;99.90;;;;;;5031803;28;20025;-74
2021/04/28 03:00:19;;;;;;;9.15;5.90;;;7.40;99.90;;;;;;5024730;28;20034;-73
2021/04/28 03:02:46;;;;;;;7.88;5.88;;;7.40;99.90;;;;;;5030722;28;20010;-73
2021/04/28 03:05:15;;;;;;;8.05;6.28;;;7.30;99.90;;;;;;5036344;28;20113;-73
2021/04/28 03:07:41;;;;;;;7.00;5.85;;;7.40;99.90;;;;;;5037686;28;20022;-73
2021/04/28 03:10:07;;;;;;;9.45;6.03;;;7.40;99.90;;;;;;5039543;28;20028;-73
2021/04/28 03:12:33;;;;;;;8.63;6.13;;;7.30;99.90;;;;;;5038879;28;20010;-73
2021/04/28 03:14:59;;;;;;;11.32;6.50;;;7.40;1.00;;;;;;5039532;28;20006;-73
2021/04/28 03:17:25;;;;;;;8.48;5.90;;;7.30;1.00;;;;;;5038677;28;20025;-74
2021/04/28 03:19:54;;;;;;;7.53;6.30;;;7.20;1.00;;;;;;5037792;28;20082;-74
2021/04/28 03:22:20;;;;;;;8.25;6.32;;;7.20;1.00;;;;;;5038561;28;20030;-75
2021/04/28 03:24:47;;;;;;;11.10;6.00;;;7.20;1.00;;;;;;5029482;28;20018;-74
2021/04/28 03:27:14;;;;;;;9.18;5.85;;;7.10;1.00;;;;;;5030566;28;20022;-74
2021/04/28 03:29:40;;;;;;;12.18;7.13;;;7.10;1.00;;;;;;5029889;28;20041;-74
2021/04/28 03:32:07;;;;;;;8.70;5.82;;;7.10;1.00;;;;;;5038342;28;20029;-73
2021/04/28 03:34:33;;;;;;;12.27;6.80;;;7.00;1.00;;;;;;5034871;28;20049;-73
2021/04/28 03:36:58;;;;;;;10.40;7.20;;;7.00;1.00;;;;;;5036921;28;20026;-73
2021/04/28 03:39:24;;;;;;;9.43;6.13;;;7.10;1.00;;;;;;5036377;28;20036;-74
2021/04/28 03:41:50;;;;;;;9.40;6.35;;;7.00;1.00;;;;;;5037647;28;20014;-74
2021/04/28 03:44:16;;;;;;;11.75;6.68;;;7.00;1.00;;;;;;5037851;28;20010;-73
2021/04/28 03:46:42;;;;;;;8.93;6.03;;;6.90;1.00;;;;;;5035602;28;20026;-74
2021/04/28 03:49:07;;;;;;;11.90;6.25;;;7.00;1.00;;;;;;5033011;28;20029;-73
2021/04/28 03:51:33;;;;;;;10.57;6.18;;;6.90;1.00;;;;;;5030185;28;20140;-73
2021/04/28 03:53:59;;;;;;;12.88;7.60;;;6.90;1.00;;;;;;5027006;28;20026;-74
2021/04/28 03:56:26;;;;;;;14.55;9.00;;;6.90;1.00;;;;;;5028671;28;20045;-74
2021/04/28 03:58:52;;;;;;;11.98;10.25;;;6.90;1.00;;;;;;5031164;28;20130;-73
2021/04/28 04:01:18;;;;;;;11.90;8.98;;;6.90;1.00;;;;;;5023782;28;20022;-72
2021/04/28 04:03:44;;;;;;;11.07;6.95;;;7.00;1.00;;;;;;5018087;28;20432;-74
2021/04/28 04:06:10;;;;;;;8.45;6.25;;;7.00;1.00;;;;;;5017483;28;20026;-74
2021/04/28 04:08:36;;;;;;;12.25;5.75;;;7.00;1.00;;;;;;5017122;28;20121;-75
2021/04/28 04:11:02;;;;;;;11.77;6.40;;;6.90;1.00;;;;;;5017249;28;20151;-74
2021/04/28 04:13:27;;;;;;;11.20;7.20;;;6.90;1.00;;;;;;5016107;28;20064;-73
2021/04/28 04:15:53;;;;;;;9.95;6.70;;;6.90;1.00;;;;;;5022876;28;20513;-73
2021/04/28 04:18:19;;;;;;;14.15;7.13;;;6.90;1.00;;;;;;5024923;28;20026;-73
2021/04/28 04:20:45;;;;;;;10.18;7.18;;;7.00;1.00;;;;;;5013476;28;20022;-73
2021/04/28 04:23:10;;;;;;;10.13;7.30;;;7.00;1.00;;;;;;5019396;28;20025;-73
2021/04/28 04:25:36;;;;;;;12.55;7.25;;;7.10;1.00;;;;;;5016540;28;20105;-75
2021/04/28 04:28:02;;;;;;;10.93;7.35;;;7.10;1.00;;;;;;5016299;28;20404;-73
2021/04/28 04:30:28;;;;;;;16.40;7.50;;;7.20;1.00;;;;;;5005762;28;20034;-73
2021/04/28 04:32:54;;;;;;;10.40;7.07;;;7.40;1.00;;;;;;5015709;28;20029;-73
2021/04/28 04:35:20;;;;;;;10.70;8.70;;;7.60;99.90;;;;;;5012170;28;20029;-74
2021/04/28 04:37:46;;;;;;;22.63;8.95;;;7.80;99.90;;;;;;5008906;28;20021;-74
2021/04/28 04:40:12;;;;;;;15.85;8.48;;;8.10;99.90;;;;;;5007924;28;20084;-73
2021/04/28 04:42:37;;;;;;;16.38;8.07;;;8.30;99.90;;;;;;5011943;28;20037;-73
2021/04/28 04:45:04;;;;;;;15.13;7.68;;;8.40;99.90;;;;;;5018270;28;20036;-73
2021/04/28 04:47:29;;;;;;;11.88;7.25;;;8.70;1.00;;;;;;5016966;28;20046;-73
2021/04/28 04:49:55;;;;;;;21.80;7.40;;;8.70;10.50;;;;;;5014132;28;20045;-75
2021/04/28 04:52:20;;;;;;;11.90;6.65;;;9.00;1.00;;;;;;4995082;28;20037;-72
2021/04/28 04:54:46;;;;;;;20.42;7.40;;;9.20;1.00;;;;;;5013460;28;20065;-75
2021/04/28 04:57:12;;;;;;;14.00;9.02;;;9.20;1.00;;;;;;5012303;28;20049;-73
2021/04/28 04:59:37;;;;;;;9.32;7.13;;;9.30;1.00;;;;;;5017264;28;20029;-74
2021/04/28 05:02:03;;;;;;;18.33;7.32;;;9.40;1.00;;;;;;5010818;28;20101;-73
2021/04/28 05:04:28;;;;;;;14.25;7.53;;;9.80;99.90;;;;;;5010817;28;20022;-74
2021/04/28 05:06:54;;;;;;;14.55;7.82;;;10.10;99.90;;;;;;5014367;28;20034;-74
2021/04/28 05:09:21;;;;;;;18.10;7.50;;;10.30;99.90;;;;;;5014874;28;20022;-74
2021/04/28 05:11:46;;;;;;;20.38;7.55;;;10.40;4.70;;;;;;5014027;28;20022;-74
2021/04/28 05:14:12;;;;;;;15.52;7.85;;;10.60;99.90;;;;;;5013616;28;20045;-74
2021/04/28 05:16:37;;;;;;;16.55;6.80;;;10.90;99.90;;;;;;5014419;28;20164;-74
2021/04/28 05:19:03;;;;;;;17.75;6.93;;;11.10;1.00;;;;;;5013228;28;20076;-75
2021/04/28 05:21:29;;;;;;;13.90;7.45;;;11.30;99.90;;;;;;5012126;28;20129;-74
2021/04/28 05:23:54;;;;;;;24.67;7.65;;;11.50;1.00;;;;;;5014270;28;20018;-73
2021/04/28 05:26:20;;;;;;;15.60;7.47;;;11.70;99.90;;;;;;5013873;28;20072;-73
2021/04/28 05:28:46;;;;;;;9.95;7.20;;;12.30;20.90;;;;;;5014345;28;20026;-74
2021/04/28 05:31:12;;;;;;;14.82;7.35;;;13.40;99.90;;;;;;5013162;28;20021;-74
2021/04/28 05:33:38;;;;;;;17.50;7.50;;;13.10;99.90;;;;;;5010606;28;20033;-72
2021/04/28 05:36:04;;;;;;;15.55;7.15;;;12.80;99.90;;;;;;5008346;28;20026;-73
2021/04/28 05:38:30;;;;;;;10.45;7.50;;;13.50;1.00;;;;;;5012080;28;20042;-73
2021/04/28 05:40:56;;;;;;;13.07;7.82;;;14.10;1.00;;;;;;5018721;28;20030;-74
2021/04/28 05:43:21;;;;;;;13.90;8.65;;;13.80;99.90;;;;;;5015502;28;20395;-74
2021/04/28 05:45:47;;;;;;;13.23;9.43;;;13.80;99.90;;;;;;5014932;28;20074;-74
2021/04/28 05:48:15;;;;;;;16.48;8.45;;;14.70;1.00;;;;;;5015619;28;20482;-75
2021/04/28 05:50:42;;;;;;;14.52;9.55;;;13.90;99.90;;;;;;5014520;28;20374;-72
2021/04/28 05:53:09;;;;;;;14.75;8.68;;;13.90;99.90;;;;;;5014466;28;20022;-74
2021/04/28 05:55:35;;;;;;;11.38;8.82;;;14.00;99.90;;;;;;5010994;28;20497;-75
2021/04/28 05:58:01;;;;;;;27.55;10.38;;;14.40;99.90;;;;;;5013008;28;20528;-74
2021/04/28 06:00:27;;;;;;;15.02;9.23;;;14.90;99.90;;;;;;5006900;28;20046;-74
2021/04/28 06:02:53;;;;;;;17.63;9.05;;;14.70;99.90;;;;;;5018972;28;20022;-74
2021/04/28 06:05:19;;;;;;;21.52;9.63;;;14.70;99.90;;;;;;5017926;28;20038;-74
2021/04/28 06:07:45;;;;;;;26.52;10.52;;;14.50;99.90;;;;;;5010213;28;20446;-74
2021/04/28 06:10:12;;;;;;;15.30;9.30;;;13.70;99.90;;;;;;5020721;28;20037;-75
2021/04/28 06:12:38;;;;;;;22.73;9.98;;;13.40;99.90;;;;;;5011889;28;20052;-73
2021/04/28 06:15:04;;;;;;;22.00;10.05;;;13.10;99.90;;;;;;5020240;28;20032;-74
2021/04/28 06:17:31;;;;;;;19.02;10.20;;;12.90;99.90;;;;;;5012182;28;20030;-74
2021/04/28 06:19:57;;;;;;;14.00;9.75;;;12.60;1.00;;;;;;5023243;28;20030;-73
2021/04/28 06:22:22;;;;;;;16.48;8.80;;;12.40;1.00;;;;;;5019507;28;20030;-74
2021/04/28 06:24:48;;;;;;;16.73;9.43;;;12.10;21.40;;;;;;5020686;28;20033;-72
2021/04/28 06:27:14;;;;;;;14.40;9.43;;;12.10;99.90;;;;;;5024703;28;20482;-73
2021/04/28 06:29:40;;;;;;;17.35;9.60;;;12.40;99.90;;;;;;5022080;28;20037;-71
2021/04/28 06:32:06;;;;;;;14.93;8.95;;;12.40;58.30;;;;;;5015396;28;20057;-71
2021/04/28 06:34:31;;;;;;;13.38;8.95;;;12.20;61.50;;;;;;5020960;28;20025;-71
2021/04/28 06:36:57;;;;;;;15.23;9.55;;;12.20;78.00;;;;;;5025581;28;20028;-71
2021/04/28 06:39:22;;;;;;;13.43;9.35;;;12.20;99.40;;;;;;5032954;28;20021;-73
2021/04/28 06:41:48;;;;;;;13.20;8.27;;;12.40;99.90;;;;;;5034803;28;20098;-71
2021/04/28 06:44:14;;;;;;;11.70;9.00;;;12.60;27.70;;;;;;5020498;28;20072;-72
2021/04/28 06:46:39;;;;;;;16.05;9.10;;;12.80;1.00;;;;;;5030582;28;20018;-71
2021/04/28 06:49:05;;;;;;;12.18;8.45;;;12.90;1.00;;;;;;5036080;28;20049;-71
2021/04/28 06:51:30;;;;;;;11.60;9.30;;;12.90;1.00;;;;;;5036088;28;20037;-71
2021/04/28 06:54:00;;;;;;;11.60;7.47;;;13.00;1.00;;;;;;5027615;28;20033;-72
2021/04/28 06:56:26;;;;;;;10.63;8.20;;;13.10;1.00;;;;;;5018028;28;20018;-72
2021/04/28 06:58:52;;;;;;;11.45;8.70;;;13.30;1.00;;;;;;5016036;28;20028;-72
2021/04/28 07:01:17;;;;;;;14.38;8.68;;;13.30;1.00;;;;;;5015148;28;20030;-71
2021/04/28 07:03:43;;;;;;;13.82;9.73;;;13.30;1.00;;;;;;5017737;28;20022;-73
2021/04/28 07:06:11;;;;;;;15.23;8.77;;;13.30;1.00;;;;;;5019954;28;20022;-71
2021/04/28 07:08:37;;;;;;;10.90;9.05;;;13.50;99.90;;;;;;5014643;28;20034;-72
2021/04/28 07:11:03;;;;;;;13.93;9.02;;;13.60;1.00;;;;;;5020105;28;20029;-73
2021/04/28 07:13:29;;;;;;;11.73;9.30;;;13.90;99.90;;;;;;5002707;28;20034;-72
2021/04/28 07:15:54;;;;;;;15.20;9.80;;;14.20;99.90;;;;;;5030984;28;20038;-71
2021/04/28 07:18:20;;;;;;;14.25;9.98;;;14.20;99.90;;;;;;5015660;28;20031;-73
2021/04/28 07:20:46;;;;;;;11.18;9.50;;;14.10;99.90;;;;;;5025670;28;20028;-72
2021/04/28 07:23:11;;;;;;;18.10;10.27;;;14.10;99.90;;;;;;5013565;28;20026;-72
2021/04/28 07:25:37;;;;;;;16.58;10.77;;;14.00;99.90;;;;;;5018498;28;20037;-72
2021/04/28 07:28:02;;;;;;;14.65;10.52;;;14.10;99.90;;;;;;5021493;28;20147;-71
2021/04/28 07:30:28;;;;;;;12.45;9.52;;;14.20;99.90;;;;;;5021664;28;20113;-72
2021/04/28 07:32:54;;;;;;;13.48;10.35;;;14.20;99.90;;;;;;5017764;28;20026;-72
2021/04/28 07:35:21;;;;;;;22.55;9.77;;;14.20;99.90;;;;;;5016812;28;20025;-72
2021/04/28 07:37:48;;;;;;;14.57;10.30;;;14.30;99.90;;;;;;5010706;28;20436;-72
2021/04/28 07:40:14;;;;;;;13.27;10.00;;;14.50;99.90;;;;;;5022382;28;20029;-72
2021/04/28 07:42:41;;;;;;;15.40;10.82;;;14.50;99.90;;;;;;5022751;28;20355;-70
2021/04/28 07:45:08;;;;;;;22.50;10.25;;;14.50;99.90;;;;;;5014355;28;20026;-72
2021/04/28 07:47:34;;;;;;;13.95;9.70;;;14.50;99.90;;;;;;5030726;28;20020;-70
2021/04/28 07:49:59;;;;;;;11.93;9.38;;;14.90;99.90;;;;;;5029333;28;20054;-71
2021/04/28 07:52:25;;;;;;;14.70;9.73;;;15.00;99.90;;;;;;5030210;28;20285;-73
2021/04/28 07:54:51;;;;;;;14.45;9.95;;;14.90;99.90;;;;;;5031395;28;20030;-72
2021/04/28 07:57:16;;;;;;;12.68;9.23;;;15.10;99.90;;;;;;5023926;28;20064;-71
2021/04/28 07:59:44;;;;;;;14.55;9.50;;;15.30;99.90;;;;;;5023487;28;20034;-70
2021/04/28 08:02:09;;;;;;;11.30;10.10;;;15.40;99.90;;;;;;5021681;28;20037;-73
2021/04/28 08:04:38;;;;;;;12.95;10.20;;;15.50;99.90;;;;;;5021794;28;20034;-73
2021/04/28 08:07:04;;;;;;;17.45;11.52;;;15.40;99.90;;;;;;5023056;28;20081;-71
2021/04/28 08:09:29;;;;;;;23.15;10.65;;;15.70;99.90;;;;;;5017733;28;20026;-71
2021/04/28 08:11:55;;;;;;;10.38;8.95;;;15.70;99.90;;;;;;5021232;28;20504;-72
2021/04/28 08:14:21;;;;;;;14.55;9.52;;;15.80;99.90;;;;;;5023386;28;20086;-71
2021/04/28 08:16:46;;;;;;;14.52;10.05;;;15.80;99.90;;;;;;5017193;28;20125;-72
2021/04/28 08:19:12;;;;;;;13.60;9.48;;;15.90;99.90;;;;;;5022802;28;20030;-73
2021/04/28 08:21:37;;;;;;;17.05;10.40;;;16.00;99.90;;;;;;5015600;28;20030;-72
2021/04/28 08:24:03;;;;;;;19.88;9.65;;;16.20;99.90;;;;;;5021694;28;20069;-73
2021/04/28 08:26:29;;;;;;;12.65;9.07;;;16.40;99.90;;;;;;5020530;28;20112;-72
2021/04/28 08:28:57;;;;;;;17.77;10.50;;;16.60;99.90;;;;;;5012849;28;20115;-71
2021/04/28 08:31:23;;;;;;;15.23;10.50;;;16.60;99.90;;;;;;5010384;28;20030;-72
2021/04/28 08:33:49;;;;;;;17.05;10.95;;;16.50;99.90;;;;;;5015925;28;20036;-72
2021/04/28 08:36:15;;;;;;;13.40;9.45;;;16.40;99.90;;;;;;4997797;28;20520;-70
2021/04/28 08:38:41;;;;;;;15.70;9.38;;;16.30;99.90;;;;;;5014520;28;20501;-73
2021/04/28 08:41:09;;;;;;;17.15;10.05;;;16.50;99.90;;;;;;5013476;28;20029;-73
2021/04/28 08:43:36;;;;;;;13.32;9.57;;;16.80;99.90;;;;;;5014343;28;20041;-72
2021/04/28 08:46:02;;;;;;;11.38;9.95;;;16.90;99.90;;;;;;5013391;28;20022;-72
2021/04/28 08:48:29;;;;;;;15.30;10.52;;;16.90;99.90;;;;;;5013769;28;20033;-73
2021/04/28 08:50:55;;;;;;;18.50;10.25;;;16.90;99.90;;;;;;5013599;28;20076;-73
2021/04/28 08:53:23;;;;;;;14.15;11.55;;;17.00;99.90;;;;;;5012897;28;20022;-73
2021/04/28 08:55:49;;;;;;;15.35;10.23;;;17.10;99.90;;;;;;5016305;28;20555;-72
2021/04/28 08:58:15;;;;;;;16.10;10.93;;;17.30;99.90;;;;;;5008661;28;20036;-73
2021/04/28 09:00:40;;;;;;;15.93;11.07;;;17.40;99.90;;;;;;5014696;28;20038;-72
2021/04/28 09:03:06;;;;;;;20.70;12.02;;;17.60;99.90;;;;;;5013420;28;20024;-73
2021/04/28 09:05:33;;;;;;;15.90;11.55;;;17.80;99.90;;;;;;5012973;28;20026;-71
2021/04/28 09:08:00;;;;;;;14.23;11.20;;;17.90;99.90;;;;;;5014601;28;20093;-72
2021/04/28 09:10:28;;;;;;;12.88;10.85;;;17.90;99.90;;;;;;5015075;28;20470;-73
2021/04/28 09:12:57;;;;;;;13.88;11.20;;;17.90;99.90;;;;;;5013533;28;20029;-73
2021/04/28 09:15:49;;;;;;;15.63;11.32;;;17.90;99.90;;;;;;5013671;28;20042;-73
2021/04/28 09:18:19;;;;;;;18.15;11.40;;;18.00;99.90;;;;;;5013707;28;20096;-74
2021/04/28 09:20:54;;;;;;;12.27;10.50;;;18.20;99.90;;;;;;5009913;28;20323;-74
2021/04/28 09:23:26;;;;;;;15.45;11.23;;;18.40;99.90;;;;;;5010255;28;20063;-72
2021/04/28 09:25:54;;;;;;;15.93;11.52;;;18.30;99.90;;;;;;5014475;28;20018;-73
2021/04/28 09:28:31;;;;;;;18.63;11.27;;;18.40;99.90;;;;;;5014679;28;20377;-73
2021/04/28 09:31:06;;;;;;;16.17;11.65;;;18.50;99.90;;;;;;5024252;28;20029;-73
2021/04/28 09:33:44;;;;;;;19.50;11.68;;;18.70;99.90;;;;;;5034467;28;20022;-72
2021/04/28 09:36:13;;;;;;;14.18;11.25;;;18.80;99.90;;;;;;5018821;28;20033;-73
2021/04/28 09:38:49;;;;;;;15.35;11.40;;;18.70;99.90;;;;;;4998422;28;20030;-73
2021/04/28 09:41:35;;;;;;;15.57;11.48;;;18.90;99.90;;;;;;5011286;28;20026;-73
2021/04/28 09:44:02;;;;;;;16.10;10.45;;;19.10;99.40;;;;;;4994642;28;20021;-72
2021/04/28 09:46:27;;;;;;;14.73;11.07;;;19.20;98.20;;;;;;5037405;28;20038;-72
2021/04/28 09:49:06;;;;;;;16.70;12.48;;;19.20;95.40;;;;;;5020114;28;20116;-72
2021/04/28 09:51:34;;;;;;;17.98;11.32;;;19.20;89.90;;;;;;5018502;28;20025;-74
2021/04/28 09:54:14;;;;;;;17.30;11.07;;;19.10;83.10;;;;;;5013973;28;20452;-72
2021/04/28 09:56:41;;;;;;;12.70;10.52;;;19.20;83.70;;;;;;5017914;28;20037;-72
2021/04/28 09:59:07;;;;;;;14.80;10.60;;;19.30;57.70;;;;;;5016167;28;20045;-72
2021/04/28 10:01:35;;;;;;;14.32;9.63;;;19.30;50.70;;;;;;5017472;28;20029;-72
2021/04/28 10:04:03;;;;;;;12.25;9.75;;;19.50;47.50;;;;;;5017510;28;20050;-72
2021/04/28 10:06:48;;;;;;;18.90;11.13;;;19.70;43.80;;;;;;5017175;28;20389;-72
2021/04/28 10:09:37;;;;;;;17.23;10.43;;;19.90;41.40;;;;;;5014469;28;20040;-72
2021/04/28 10:12:08;;;;;;;13.70;9.80;;;19.90;38.00;;;;;;5014547;28;20025;-73
2021/04/28 10:14:36;;;;;;;14.45;9.73;;;20.10;29.10;;;;;;5017122;28;20077;-73
2021/04/28 10:17:04;;;;;;;13.05;9.48;;;20.10;22.40;;;;;;4999675;28;20080;-72
2021/04/28 10:19:31;;;;;;;11.75;9.68;;;20.10;18.30;;;;;;5001463;28;20512;-72
2021/04/28 10:22:06;;;;;;;12.00;9.18;;;20.10;15.40;;;;;;5015397;28;20064;-74
2021/04/28 10:24:33;;;;;;;11.30;9.40;;;20.30;14.90;;;;;;5030564;28;20025;-72
2021/04/28 10:27:00;;;;;;;13.23;8.65;;;20.50;11.30;;;;;;5030648;28;20029;-72
2021/04/28 10:29:28;;;;;;;12.32;9.45;;;20.50;10.50;;;;;;5031586;28;20021;-73
2021/04/28 10:31:54;;;;;;;13.60;8.70;;;20.70;5.50;;;;;;5034769;28;20014;-72
2021/04/28 10:34:48;;;;;;;14.63;9.35;;;20.40;5.10;;;;;;5036534;28;20010;-72
2021/04/28 10:37:15;;;;;;;9.38;8.27;;;20.50;5.50;;;;;;5020865;28;20030;-73
2021/04/28 10:39:45;;;;;;;11.30;9.32;;;20.80;8.20;;;;;;5021217;28;20029;-74
2021/04/28 10:42:33;;;;;;;10.75;9.07;;;20.90;1.00;;;;;;5017203;28;20081;-73
2021/04/28 10:45:00;;;;;;;11.07;8.48;;;20.90;1.00;;;;;;5020746;28;20030;-74
2021/04/28 10:47:43;;;;;;;13.13;8.13;;;21.20;1.00;;;;;;5017060;28;20398;-73
2021/04/28 10:50:19;;;;;;;10.32;8.85;;;21.00;1.00;;;;;;5028403;28;20028;-72
2021/04/28 10:53:08;;;;;;;9.40;8.02;;;20.60;1.00;;;;;;5035236;28;20037;-72
2021/04/28 10:55:45;;;;;;;9.65;8.55;;;20.40;1.00;;;;;;5025466;28;20509;-74
2021/04/28 10:58:26;;;;;;;10.13;8.02;;;20.40;1.00;;;;;;5020085;28;20069;-72
2021/04/28 11:01:07;;;;;;;11.43;8.38;;;20.10;1.00;;;;;;5005996;28;20022;-72
2021/04/28 11:03:54;;;;;;;8.90;8.00;;;20.00;1.00;;;;;;5020106;28;20030;-74
2021/04/28 11:06:23;;;;;;;11.07;8.50;;;19.80;1.00;;;;;;5023517;28;20450;-73
2021/04/28 11:08:54;;;;;;;8.88;7.55;;;19.50;1.00;;;;;;5017214;28;20517;-73
2021/04/28 11:14:18;;;;;;;8.13;7.32;;;19.10;1.00;;;;;;5030787;28;20030;-73
2021/04/28 11:16:44;;;;;;;8.55;6.95;;;19.10;1.00;;;;;;5034325;28;20026;-71
2021/04/28 11:19:24;;;;;;;9.18;7.35;;;19.50;1.00;;;;;;5032890;28;20049;-72
2021/04/28 11:22:18;;;;;;;9.27;6.30;;;20.00;1.00;;;;;;5026806;28;20053;-72
2021/04/28 11:25:04;;;;;;;11.85;6.57;;;20.30;1.00;;;;;;5026757;28;20026;-73
2021/04/28 11:28:02;;;;;;;7.07;6.10;;;20.60;1.00;;;;;;5031329;28;20026;-72
2021/04/28 11:30:38;;;;;;;7.57;6.78;;;20.80;1.00;;;;;;5029162;28;20033;-73
2021/04/28 11:33:08;;;;;;;9.82;6.50;;;20.60;1.00;;;;;;5027174;28;20022;-75
2021/04/28 11:35:39;;;;;;;8.88;6.68;;;20.40;1.00;;;;;;5025480;28;20038;-72
2021/04/28 11:38:17;;;;;;;8.32;7.25;;;20.50;1.00;;;;;;5020274;28;20041;-72
2021/04/28 11:41:02;;;;;;;9.10;6.75;;;20.80;1.00;;;;;;5024055;28;20026;-74
2021/04/28 11:43:32;;;;;;;9.95;6.68;;;20.90;1.00;;;;;;5017774;28;20104;-75
2021/04/28 11:46:10;;;;;;;8.43;6.38;;;20.90;1.00;;;;;;5017680;28;20034;-75
2021/04/28 11:48:37;;;;;;;8.75;6.10;;;20.50;1.00;;;;;;5018281;28;20030;-73
2021/04/28 11:51:06;;;;;;;7.97;6.90;;;20.40;1.00;;;;;;5018784;28;20030;-74
2021/04/28 11:53:32;;;;;;;10.18;6.97;;;20.60;1.00;;;;;;5018915;28;20032;-75
2021/04/28 11:55:59;;;;;;;9.55;7.80;;;20.80;1.00;;;;;;5018717;28;20452;-75
2021/04/28 11:58:32;;;;;;;8.35;7.32;;;21.10;1.00;;;;;;5017568;28;20018;-74
2021/04/28 12:01:11;;;;;;;8.93;7.78;;;21.40;1.00;;;;;;5017562;28;20146;-73
2021/04/28 12:04:06;;;;;;;8.00;6.40;;;21.60;1.00;;;;;;5016031;28;20022;-74
2021/04/28 12:06:46;;;;;;;9.82;6.72;;;21.60;1.00;;;;;;5015493;28;20018;-75
2021/04/28 12:09:30;;;;;;;8.63;6.17;;;21.70;1.00;;;;;;5018413;28;20034;-74
2021/04/28 12:12:10;;;;;;;8.90;7.22;;;21.30;1.00;;;;;;5017419;28;20018;-74
2021/04/28 12:14:36;;;;;;;10.23;7.38;;;21.10;1.00;;;;;;5016245;28;20052;-74
2021/04/28 12:17:01;;;;;;;9.55;6.72;;;20.90;1.00;;;;;;5017330;28;20025;-74
2021/04/28 12:19:28;;;;;;;10.68;7.55;;;20.70;1.00;;;;;;5017972;28;20033;-73
2021/04/28 12:22:03;;;;;;;9.98;7.13;;;20.60;1.00;;;;;;5016071;28;20022;-74
2021/04/28 12:24:37;;;;;;;11.70;7.68;;;20.50;1.00;;;;;;5032235;28;20469;-73
2021/04/28 12:27:09;;;;;;;10.23;7.30;;;20.60;1.00;;;;;;5036060;28;20026;-73
2021/04/28 12:29:41;;;;;;;14.18;7.05;;;20.50;1.00;;;;;;5035420;28;20029;-74
2021/04/28 12:32:07;;;;;;;10.25;7.82;;;20.60;1.00;;;;;;5036258;28;20141;-73
2021/04/28 12:34:34;;;;;;;13.98;8.10;;;20.60;1.00;;;;;;5035094;28;20025;-73
2021/04/28 12:37:18;;;;;;;8.85;7.25;;;21.10;1.00;;;;;;5036431;28;20041;-73
2021/04/28 12:39:58;;;;;;;10.10;7.63;;;21.40;1.00;;;;;;5036228;28;20388;-73
2021/04/28 12:42:33;;;;;;;10.43;7.15;;;21.40;1.00;;;;;;5035473;28;20389;-74
2021/04/28 12:45:02;;;;;;;12.88;6.97;;;21.40;1.00;;;;;;5035138;28;20496;-73
2021/04/28 12:47:31;;;;;;;7.95;7.15;;;21.20;1.00;;;;;;5034777;28;20029;-74
2021/04/28 12:50:12;;;;;;;7.47;6.68;;;21.50;1.00;;;;;;5031090;28;20045;-73
2021/04/28 12:52:41;;;;;;;7.90;5.75;;;21.60;1.00;;;;;;5025080;28;20524;-73
2021/04/28 12:55:40;;;;;;;7.75;6.70;;;22.10;1.00;;;;;;5023597;28;20026;-75
2021/04/28 12:58:12;;;;;;;7.28;6.38;;;21.70;1.00;;;;;;5010204;28;20045;-73